createdAt,value
2023-04-15T00:02:03.609Z,5.42
2023-04-15T00:04:37.618Z,5.36
2023-04-15T00:07:18.421Z,5.54
2023-04-15T00:09:56.307Z,5.53
2023-04-15T00:12:33.229Z,5.49
2023-04-15T00:15:15.624Z,5.62
2023-04-15T00:17:56.955Z,5.54
2023-04-15T00:20:35.462Z,5.65
2023-04-15T00:23:13.944Z,5.61
2023-04-15T00:25:54.695Z,5.60
2023-04-15T00:28:32.936Z,5.70
2023-04-15T00:31:11.282Z,5.71
2023-04-15T00:33:45.142Z,5.68
2023-04-15T00:36:20.603Z,5.73
2023-04-15T00:39:04.048Z,5.64
2023-04-15T00:41:44.772Z,5.58
2023-04-15T00:44:21.919Z,5.68
2023-04-15T00:46:57.896Z,5.64
2023-04-15T00:49:40.074Z,5.76
2023-04-15T00:52:18.953Z,5.78
2023-04-15T00:54:54.246Z,5.62
2023-04-15T00:57:31.991Z,5.69
2023-04-15T01:00:08.149Z,5.65
2023-04-15T01:02:48.806Z,5.83
2023-04-15T01:05:19.739Z,5.82
2023-04-15T01:08:00.688Z,5.83
2023-04-15T01:10:42.376Z,5.79
2023-04-15T01:13:22.553Z,5.77
2023-04-15T01:15:57.026Z,5.80
2023-04-15T01:18:35.980Z,5.78
2023-04-15T01:21:14.765Z,5.97
2023-04-15T01:23:53.569Z,5.95
2023-04-15T01:26:29.046Z,5.92
2023-04-15T01:29:03.791Z,5.96
2023-04-15T01:31:50.316Z,5.92
2023-04-15T01:34:26.203Z,5.93
2023-04-15T01:37:09.892Z,6.01
2023-04-15T01:39:45.337Z,6.00
2023-04-15T01:42:23.050Z,5.95
2023-04-15T01:45:00.720Z,5.91
2023-04-15T01:47:43.050Z,6.07
2023-04-15T01:50:24.054Z,6.05
2023-04-15T01:53:07.936Z,5.94
2023-04-15T01:55:46.281Z,5.97
2023-04-15T01:58:27.121Z,6.07
2023-04-15T02:01:00.412Z,6.05
2023-04-15T02:03:35.148Z,6.08
2023-04-15T02:06:10.550Z,5.97
2023-04-15T02:08:49.020Z,6.02
2023-04-15T02:11:26.350Z,6.05
2023-04-15T02:14:01.673Z,6.10
2023-04-15T02:16:42.434Z,6.09
2023-04-15T02:19:20.910Z,6.18
2023-04-15T02:22:01.682Z,6.22
2023-04-15T02:24:31.371Z,6.28
2023-04-15T02:27:14.635Z,6.33
2023-04-15T02:29:55.121Z,6.26
2023-04-15T02:32:38.465Z,6.27
2023-04-15T02:35:16.778Z,6.41
2023-04-15T02:37:57.657Z,6.41
2023-04-15T02:40:38.965Z,6.44
2023-04-15T02:43:18.328Z,6.24
2023-04-15T02:45:56.146Z,6.30
2023-04-15T02:48:33.953Z,6.38
2023-04-15T02:51:20.459Z,6.43
2023-04-15T02:54:06.298Z,6.39
2023-04-15T02:56:48.024Z,6.34
2023-04-15T02:59:20.154Z,6.42
2023-04-15T03:01:55.325Z,6.52
2023-04-15T03:04:30.251Z,6.45
2023-04-15T03:07:06.477Z,6.50
2023-04-15T03:09:47.987Z,6.61
2023-04-15T03:12:26.267Z,6.48
2023-04-15T03:15:07.004Z,6.41
2023-04-15T03:17:55.649Z,6.52
2023-04-15T03:20:36.358Z,6.49
2023-04-15T03:23:14.618Z,6.57
2023-04-15T03:25:58.997Z,6.50
2023-04-15T03:28:39.474Z,6.51
2023-04-15T03:31:20.075Z,6.49
2023-04-15T03:33:57.935Z,6.37
2023-04-15T03:36:43.227Z,6.42
2023-04-15T03:39:18.470Z,6.30
2023-04-15T03:41:56.474Z,6.23
2023-04-15T03:44:37.944Z,6.29
2023-04-15T03:47:19.376Z,6.41
2023-04-15T03:49:48.916Z,6.50
2023-04-15T03:52:27.291Z,6.45
2023-04-15T03:55:05.060Z,6.34
2023-04-15T03:57:46.679Z,6.48
2023-04-15T04:00:22.944Z,6.56
2023-04-15T04:03:01.340Z,6.49
2023-04-15T04:05:45.470Z,6.59
2023-04-15T04:08:24.783Z,6.64
2023-04-15T04:11:06.088Z,6.68
2023-04-15T04:13:44.664Z,6.83
2023-04-15T04:16:22.463Z,6.83
2023-04-15T04:19:06.415Z,6.79
2023-04-15T04:21:44.271Z,6.83
2023-04-15T04:24:31.654Z,6.86
2023-04-15T04:27:16.200Z,6.93
2023-04-15T04:30:00.316Z,6.89
2023-04-15T04:32:35.896Z,7.02
2023-04-15T04:35:13.977Z,6.96
2023-04-15T04:37:54.537Z,6.90
2023-04-15T04:40:35.312Z,6.94
2023-04-15T04:43:16.008Z,6.84
2023-04-15T04:45:59.959Z,6.77
2023-04-15T04:48:37.955Z,6.74
2023-04-15T04:51:18.637Z,6.86
2023-04-15T04:53:57.376Z,6.96
2023-04-15T04:56:40.005Z,6.82
2023-04-15T04:59:20.132Z,6.88
2023-04-15T05:02:03.528Z,6.91
2023-04-15T05:04:41.828Z,7.02
2023-04-15T05:07:27.076Z,7.29
2023-04-15T05:10:15.912Z,7.55
2023-04-15T05:12:58.636Z,7.69
2023-04-15T05:15:35.266Z,7.88
2023-04-15T05:18:13.576Z,7.85
2023-04-15T05:20:51.945Z,7.74
2023-04-15T05:23:24.206Z,7.52
2023-04-15T05:26:10.218Z,7.29
2023-04-15T05:28:42.992Z,7.31
2023-04-15T05:31:23.277Z,7.32
2023-04-15T05:34:11.777Z,7.38
2023-04-15T05:36:50.894Z,7.45
2023-04-15T05:39:32.741Z,7.52
2023-04-15T05:42:14.426Z,7.64
2023-04-15T05:44:58.160Z,7.74
2023-04-15T05:47:31.137Z,7.77
2023-04-15T05:50:14.685Z,7.87
2023-04-15T05:52:56.921Z,7.93
2023-04-15T05:55:38.412Z,8.05
2023-04-15T05:58:19.675Z,8.03
2023-04-15T06:00:57.422Z,8.04
2023-04-15T06:03:43.132Z,7.94
2023-04-15T06:06:21.112Z,8.06
2023-04-15T06:09:00.790Z,7.76
2023-04-15T06:11:44.212Z,7.72
2023-04-15T06:14:17.070Z,7.85
2023-04-15T06:16:58.893Z,7.86
2023-04-15T06:19:36.674Z,8.13
2023-04-15T06:22:09.578Z,8.33
2023-04-15T06:24:44.826Z,8.21
2023-04-15T06:27:23.204Z,8.55
2023-04-15T06:30:00.913Z,8.71
2023-04-15T06:32:37.003Z,8.83
2023-04-15T06:35:17.688Z,8.90
2023-04-15T06:37:55.573Z,8.91
2023-04-15T06:40:31.730Z,9.01
2023-04-15T06:43:10.431Z,9.16
2023-04-15T06:45:45.580Z,8.94
2023-04-15T06:48:28.357Z,8.96
2023-04-15T06:50:59.050Z,9.09
2023-04-15T06:53:30.901Z,9.19
2023-04-15T06:56:08.806Z,9.13
2023-04-15T06:58:48.948Z,9.24
2023-04-15T07:01:28.936Z,9.34
2023-04-15T07:04:09.516Z,9.60
2023-04-15T07:06:53.372Z,9.63
2023-04-15T07:09:31.260Z,9.82
2023-04-15T07:12:10.564Z,9.89
2023-04-15T07:14:44.850Z,9.91
2023-04-15T07:17:20.271Z,9.93
2023-04-15T07:20:00.207Z,10.02
2023-04-15T07:22:43.524Z,10.14
2023-04-15T07:25:16.148Z,10.19
2023-04-15T07:27:54.594Z,10.55
2023-04-15T07:30:29.275Z,10.79
2023-04-15T07:33:05.257Z,10.97
2023-04-15T07:35:48.977Z,10.78
2023-04-15T07:38:32.291Z,10.91
2023-04-15T07:41:16.188Z,10.80
2023-04-15T07:43:56.801Z,10.76
2023-04-15T07:46:32.333Z,11.00
2023-04-15T07:49:13.627Z,10.99
2023-04-15T07:51:54.129Z,10.71
2023-04-15T07:54:46.699Z,10.42
2023-04-15T07:57:24.813Z,10.62
2023-04-15T08:00:07.859Z,10.82
2023-04-15T08:02:51.555Z,11.05
2023-04-15T08:05:29.761Z,10.86
2023-04-15T08:08:07.262Z,10.84
2023-04-15T08:10:52.502Z,10.87
2023-04-15T08:13:36.902Z,10.99
2023-04-15T08:16:31.202Z,10.92
2023-04-15T08:19:07.927Z,10.95
2023-04-15T08:21:48.653Z,11.06
2023-04-15T08:24:41.264Z,11.07
2023-04-15T08:27:19.227Z,11.40
2023-04-15T08:30:15.472Z,11.50
2023-04-15T08:32:53.335Z,11.90
2023-04-15T08:35:41.868Z,11.99
2023-04-15T08:38:28.624Z,11.72
2023-04-15T08:41:10.739Z,11.83
2023-04-15T08:43:53.045Z,11.94
2023-04-15T08:46:35.021Z,11.78
2023-04-15T08:49:22.909Z,11.99
2023-04-15T08:52:07.377Z,12.13
2023-04-15T08:54:46.957Z,12.55
2023-04-15T08:57:31.584Z,13.20
2023-04-15T09:00:19.841Z,13.05
2023-04-15T09:03:06.066Z,12.67
2023-04-15T09:05:53.355Z,12.62
2023-04-15T09:08:40.607Z,12.50
2023-04-15T09:11:20.309Z,12.58
2023-04-15T09:14:04.837Z,12.70
2023-04-15T09:17:01.482Z,12.77
2023-04-15T09:19:43.895Z,13.00
2023-04-15T09:22:28.117Z,13.10
2023-04-15T09:25:34.793Z,12.71
2023-04-15T09:28:32.251Z,12.62
2023-04-15T09:31:15.675Z,12.77
2023-04-15T09:34:04.909Z,13.23
2023-04-15T09:36:58.503Z,13.51
2023-04-15T09:39:52.129Z,13.77
2023-04-15T09:42:57.718Z,13.47
2023-04-15T09:45:40.263Z,13.25
2023-04-15T09:48:26.536Z,13.11
2023-04-15T09:51:12.492Z,12.84
2023-04-15T09:54:00.566Z,12.87
2023-04-15T09:56:44.162Z,12.95
2023-04-15T09:59:26.943Z,13.61
2023-04-15T10:02:10.659Z,14.32
2023-04-15T10:05:03.099Z,14.45
2023-04-15T10:07:42.961Z,14.30
2023-04-15T10:10:24.295Z,14.34
2023-04-15T10:13:12.682Z,14.67
2023-04-15T10:16:03.551Z,14.59
2023-04-15T10:19:04.777Z,14.25
2023-04-15T10:21:51.533Z,14.24
2023-04-15T10:24:34.362Z,14.23
2023-04-15T10:27:12.506Z,14.07
2023-04-15T10:30:03.077Z,13.59
2023-04-15T10:32:44.911Z,13.64
2023-04-15T10:35:27.230Z,13.53
2023-04-15T10:38:28.869Z,13.54
2023-04-15T10:41:28.216Z,14.29
2023-04-15T10:44:14.709Z,14.51
2023-04-15T10:46:58.336Z,14.33
2023-04-15T10:49:57.286Z,14.36
2023-04-15T10:52:42.700Z,14.40
2023-04-15T10:55:31.568Z,14.56
2023-04-15T10:58:12.160Z,14.62
2023-04-15T11:00:59.009Z,14.28
2023-04-15T11:03:48.127Z,13.95
2023-04-15T11:06:51.379Z,13.85
2023-04-15T11:09:39.727Z,13.81
2023-04-15T11:12:29.219Z,13.42
2023-04-15T11:15:48.445Z,13.38
2023-04-15T11:18:35.197Z,13.16
2023-04-15T11:21:18.014Z,12.61
2023-04-15T11:24:03.990Z,12.48
2023-04-15T11:26:38.234Z,12.20
2023-04-15T11:29:23.286Z,12.79
2023-04-15T11:32:12.167Z,13.38
2023-04-15T11:34:51.678Z,13.83
2023-04-15T11:37:38.095Z,14.03
2023-04-15T11:40:23.077Z,14.08
2023-04-15T11:43:15.957Z,13.91
2023-04-15T11:46:37.703Z,13.47
2023-04-15T11:49:47.636Z,13.59
2023-04-15T11:52:35.086Z,13.80
2023-04-15T11:55:18.820Z,13.85
2023-04-15T11:58:16.735Z,14.18
2023-04-15T12:00:59.321Z,14.38
2023-04-15T12:03:51.229Z,14.97
2023-04-15T12:06:42.604Z,15.13
2023-04-15T12:09:26.644Z,15.14
2023-04-15T12:12:07.220Z,14.89
2023-04-15T12:15:07.759Z,14.73
2023-04-15T12:17:51.883Z,14.69
2023-04-15T12:21:09.263Z,14.53
2023-04-15T12:24:06.601Z,14.68
2023-04-15T12:27:04.962Z,14.61
2023-04-15T12:29:44.777Z,14.93
2023-04-15T12:32:32.021Z,15.15
2023-04-15T12:35:23.903Z,14.84
2023-04-15T12:38:10.261Z,14.47
2023-04-15T12:41:04.206Z,14.32
2023-04-15T12:43:49.186Z,14.84
2023-04-15T12:46:47.557Z,14.63
2023-04-15T12:49:44.157Z,14.66
2023-04-15T12:52:32.058Z,14.58
2023-04-15T12:55:16.206Z,14.45
2023-04-15T12:58:05.208Z,14.23
2023-04-15T13:00:50.082Z,13.92
2023-04-15T13:03:36.200Z,13.62
2023-04-15T13:06:46.521Z,13.14
2023-04-15T13:09:21.741Z,13.03
2023-04-15T13:12:14.656Z,13.19
2023-04-15T13:15:05.609Z,13.11
2023-04-15T13:17:55.901Z,13.00
2023-04-15T13:20:46.587Z,12.82
2023-04-15T13:23:38.930Z,12.72
2023-04-15T13:26:22.877Z,12.82
2023-04-15T13:29:18.969Z,12.92
2023-04-15T13:32:02.696Z,12.76
2023-04-15T13:34:49.585Z,12.55
2023-04-15T13:37:37.417Z,12.52
2023-04-15T13:40:21.295Z,12.63
2023-04-15T13:43:13.409Z,12.92
2023-04-15T13:45:59.648Z,13.04
2023-04-15T13:48:55.720Z,13.21
2023-04-15T13:51:36.423Z,13.30
2023-04-15T13:54:15.236Z,13.57
2023-04-15T13:56:58.884Z,13.62
2023-04-15T13:59:45.200Z,13.68
2023-04-15T14:02:34.954Z,13.79
2023-04-15T14:05:23.827Z,13.64
2023-04-15T14:08:10.873Z,13.98
2023-04-15T14:11:00.896Z,13.77
2023-04-15T14:13:41.612Z,13.42
2023-04-15T14:16:28.449Z,13.38
2023-04-15T14:19:14.796Z,13.00
2023-04-15T14:21:55.948Z,12.81
2023-04-15T14:24:55.726Z,12.89
2023-04-15T14:27:42.790Z,12.70
2023-04-15T14:30:38.606Z,12.78
2023-04-15T14:33:30.666Z,12.71
2023-04-15T14:36:26.121Z,12.79
2023-04-15T14:39:09.645Z,12.66
2023-04-15T14:41:58.576Z,12.56
2023-04-15T14:48:00.439Z,12.17
2023-04-15T14:51:07.967Z,12.01
2023-04-15T14:54:24.041Z,12.03
2023-04-15T14:57:12.655Z,11.96
2023-04-15T14:59:57.257Z,11.87
2023-04-15T15:02:58.630Z,12.03
2023-04-15T15:05:47.028Z,11.90
2023-04-15T15:08:42.431Z,11.82
2023-04-15T15:11:24.214Z,11.93
2023-04-15T15:14:13.427Z,11.91
2023-04-15T15:17:01.675Z,12.04
2023-04-15T15:19:50.924Z,11.95
2023-04-15T15:22:34.294Z,12.01
2023-04-15T15:25:30.031Z,12.04
2023-04-15T15:28:18.268Z,12.06
2023-04-15T15:31:05.593Z,12.16
2023-04-15T15:33:57.941Z,12.27
2023-04-15T15:36:57.270Z,12.15
2023-04-15T15:39:41.106Z,12.07
2023-04-15T15:42:25.885Z,12.02
2023-04-15T15:45:19.504Z,12.14
2023-04-15T15:51:04.946Z,12.07
2023-04-15T15:54:01.351Z,12.05
2023-04-15T15:56:42.319Z,12.00
2023-04-15T15:59:26.739Z,12.05
2023-04-15T16:02:15.521Z,12.03
2023-04-15T16:05:00.984Z,11.83
2023-04-15T16:07:46.633Z,11.72
2023-04-15T16:10:50.266Z,11.63
2023-04-15T16:13:37.800Z,11.54
2023-04-15T16:16:31.915Z,11.56
2023-04-15T16:19:18.747Z,11.51
2023-04-15T16:21:59.453Z,11.37
2023-04-15T16:24:50.267Z,11.44
2023-04-15T16:27:54.236Z,11.45
2023-04-15T16:30:50.272Z,11.27
2023-04-15T16:33:34.579Z,11.17
2023-04-15T16:36:32.274Z,10.97
2023-04-15T16:39:15.516Z,11.09
2023-04-15T16:42:00.514Z,10.86
2023-04-15T16:44:51.885Z,10.82
2023-04-15T16:47:36.225Z,10.85
2023-04-15T16:50:20.088Z,10.83
2023-04-15T16:53:03.770Z,10.79
2023-04-15T16:55:51.143Z,10.70
2023-04-15T16:58:35.369Z,10.74
2023-04-15T17:01:17.029Z,10.75
2023-04-15T17:03:50.017Z,10.84
2023-04-15T17:06:31.314Z,10.70
2023-04-15T17:09:18.677Z,10.71
2023-04-15T17:11:56.591Z,10.61
2023-04-15T17:14:42.026Z,10.63
2023-04-15T17:17:20.893Z,10.60
2023-04-15T17:20:08.375Z,10.55
2023-04-15T17:22:46.613Z,10.57
2023-04-15T17:25:38.886Z,10.58
2023-04-15T17:28:22.935Z,10.48
2023-04-15T17:31:12.358Z,10.28
2023-04-15T17:34:10.638Z,10.13
2023-04-15T17:36:54.597Z,10.08
2023-04-15T17:39:37.134Z,9.94
2023-04-15T17:42:23.147Z,9.76
2023-04-15T17:45:17.504Z,9.72
2023-04-15T17:48:06.131Z,9.65
2023-04-15T17:50:48.895Z,9.58
2023-04-15T17:53:47.785Z,9.48
2023-04-15T17:56:34.715Z,9.31
2023-04-15T17:59:19.837Z,9.32
2023-04-15T18:02:16.590Z,9.28
2023-04-15T18:05:00.929Z,9.22
2023-04-15T18:07:44.802Z,9.24
2023-04-15T18:10:43.880Z,9.19
2023-04-15T18:13:29.566Z,8.96
2023-04-15T18:16:05.924Z,8.90
2023-04-15T18:18:52.497Z,8.82
2023-04-15T18:21:36.380Z,8.58
2023-04-15T18:24:52.551Z,8.60
2023-04-15T18:27:59.200Z,8.56
2023-04-15T18:31:21.997Z,8.45
2023-04-15T18:34:04.092Z,8.40
2023-04-15T18:37:04.137Z,8.35
2023-04-15T18:39:50.553Z,8.31
2023-04-15T18:42:30.980Z,8.17
2023-04-15T18:45:05.737Z,8.08
2023-04-15T18:47:59.967Z,8.01
2023-04-15T18:50:49.258Z,7.97
2023-04-15T18:53:38.762Z,7.90
2023-04-15T18:56:18.563Z,7.90
2023-04-15T18:59:09.926Z,7.86
2023-04-15T19:02:07.547Z,7.78
2023-04-15T19:04:53.131Z,7.76
2023-04-15T19:07:36.883Z,7.77
2023-04-15T19:10:23.654Z,7.70
2023-04-15T19:13:05.422Z,7.66
2023-04-15T19:15:57.850Z,7.65
2023-04-15T19:18:34.721Z,7.56
2023-04-15T19:21:19.895Z,7.51
2023-04-15T19:24:06.868Z,7.45
2023-04-15T19:26:50.234Z,7.36
2023-04-15T19:29:41.925Z,7.30
2023-04-15T19:32:26.930Z,7.18
2023-04-15T19:35:24.702Z,7.13
2023-04-15T19:38:01.743Z,7.10
2023-04-15T19:40:43.892Z,7.08
2023-04-15T19:43:20.123Z,7.07
2023-04-15T19:46:07.293Z,7.01
2023-04-15T19:48:54.275Z,6.96
2023-04-15T19:51:42.139Z,6.92
2023-04-15T19:54:22.973Z,6.93
2023-04-15T19:57:02.403Z,6.83
2023-04-15T19:59:54.437Z,6.85
2023-04-15T20:02:36.346Z,6.86
2023-04-15T20:05:20.491Z,6.82
2023-04-15T20:08:06.039Z,6.85
2023-04-15T20:10:45.007Z,6.82
2023-04-15T20:13:27.980Z,6.82
2023-04-15T20:16:15.583Z,6.79
2023-04-15T20:18:56.489Z,6.78
2023-04-15T20:21:42.718Z,6.77
2023-04-15T20:24:24.436Z,6.76
2023-04-15T20:27:06.692Z,6.81
2023-04-15T20:29:51.645Z,6.78
2023-04-15T20:32:35.906Z,6.78
2023-04-15T20:35:21.227Z,6.73
2023-04-15T20:38:05.759Z,6.77
2023-04-15T20:40:43.498Z,6.76
2023-04-15T20:43:26.215Z,6.78
2023-04-15T20:46:17.750Z,6.78
2023-04-15T20:49:05.192Z,6.84
2023-04-15T20:51:48.876Z,6.79
2023-04-15T20:54:29.924Z,6.72
2023-04-15T20:57:13.617Z,6.81
2023-04-15T20:59:59.528Z,6.74
2023-04-15T21:02:47.928Z,6.69
2023-04-15T21:05:29.159Z,6.71
2023-04-15T21:08:12.983Z,6.85
2023-04-15T21:10:59.171Z,6.91
2023-04-15T21:13:46.349Z,6.88
2023-04-15T21:16:32.120Z,6.91
2023-04-15T21:19:11.115Z,7.02
2023-04-15T21:21:51.847Z,7.01
2023-04-15T21:24:40.066Z,6.90
2023-04-15T21:27:29.320Z,6.89
2023-04-15T21:30:12.629Z,6.86
2023-04-15T21:32:56.250Z,6.89
2023-04-15T21:35:40.029Z,7.01
2023-04-15T21:38:22.689Z,7.00
2023-04-15T21:41:12.754Z,6.99
2023-04-15T21:43:54.055Z,6.99
2023-04-15T21:46:46.138Z,6.98
2023-04-15T21:49:21.015Z,6.98
2023-04-15T21:52:06.016Z,6.94
2023-04-15T21:54:46.154Z,6.87
2023-04-15T21:57:34.307Z,6.81
2023-04-15T22:00:20.422Z,6.76
2023-04-15T22:03:09.613Z,6.72
2023-04-15T22:05:58.630Z,6.66
2023-04-15T22:08:41.744Z,6.65
2023-04-15T22:11:33.652Z,6.49
2023-04-15T22:14:22.367Z,6.48
2023-04-15T22:17:03.233Z,6.43
2023-04-15T22:19:42.086Z,6.40
2023-04-15T22:22:19.846Z,6.36
2023-04-15T22:25:12.279Z,6.30
2023-04-15T22:27:54.043Z,6.28
2023-04-15T22:30:37.748Z,6.31
2023-04-15T22:33:18.481Z,6.26
2023-04-15T22:36:10.218Z,6.23
2023-04-15T22:38:54.745Z,6.19
2023-04-15T22:41:32.338Z,6.18
2023-04-15T22:44:15.456Z,6.12
2023-04-15T22:47:01.887Z,6.07
2023-04-15T22:49:37.022Z,6.03
2023-04-15T22:52:20.156Z,6.03
2023-04-15T22:55:02.437Z,6.01
2023-04-15T22:57:46.895Z,5.99
2023-04-15T23:00:28.435Z,5.99
2023-04-15T23:03:04.218Z,5.94
2023-04-15T23:05:41.287Z,5.91
2023-04-15T23:08:27.684Z,5.87
2023-04-15T23:11:08.516Z,5.80
2023-04-15T23:13:56.647Z,5.80
2023-04-15T23:16:43.685Z,5.82
2023-04-15T23:19:21.637Z,5.77
2023-04-15T23:22:12.261Z,5.74
2023-04-15T23:24:53.195Z,5.73
2023-04-15T23:27:39.848Z,5.64
2023-04-15T23:30:19.820Z,5.69
2023-04-15T23:33:08.565Z,5.66
2023-04-15T23:35:53.105Z,5.64
2023-04-15T23:38:33.764Z,5.62
2023-04-15T23:41:11.937Z,5.58
2023-04-15T23:43:52.784Z,5.57
2023-04-15T23:46:33.821Z,5.59
2023-04-15T23:49:14.591Z,5.58
2023-04-15T23:51:55.253Z,5.51
2023-04-15T23:54:33.830Z,5.53
2023-04-15T23:57:12.024Z,5.56
2023-04-15T23:59:58.864Z,5.50
